sensor_id;sensor_type;location;lat;lon;timestamp;temperature;humidity
6106;DHT22;3083;51.508;7.966;2023-04-26T00:00:18;2.00;99.90
6106;DHT22;3083;51.508;7.966;2023-04-26T00:02:46;2.00;99.90
6106;DHT22;3083;51.508;7.966;2023-04-26T00:05:14;2.00;99.90
6106;DHT22;3083;51.508;7.966;2023-04-26T00:07:44;2.00;99.90
6106;DHT22;3083;51.508;7.966;2023-04-26T00:10:11;2.00;99.90
6106;DHT22;3083;51.508;7.966;2023-04-26T00:12:38;2.00;99.90
6106;DHT22;3083;51.508;7.966;2023-04-26T00:15:06;2.10;99.90
6106;DHT22;3083;51.508;7.966;2023-04-26T00:17:34;2.10;99.90
6106;DHT22;3083;51.508;7.966;2023-04-26T00:20:01;2.20;99.90
6106;DHT22;3083;51.508;7.966;2023-04-26T00:22:29;2.20;99.90
6106;DHT22;3083;51.508;7.966;2023-04-26T00:24:57;2.20;99.90
6106;DHT22;3083;51.508;7.966;2023-04-26T00:27:24;2.20;99.90
6106;DHT22;3083;51.508;7.966;2023-04-26T00:29:51;2.30;99.90
6106;DHT22;3083;51.508;7.966;2023-04-26T00:32:18;2.30;99.90
6106;DHT22;3083;51.508;7.966;2023-04-26T00:34:45;2.30;99.90
6106;DHT22;3083;51.508;7.966;2023-04-26T00:37:12;2.40;99.90
6106;DHT22;3083;51.508;7.966;2023-04-26T00:39:39;2.40;99.90
6106;DHT22;3083;51.508;7.966;2023-04-26T00:42:07;2.40;99.90
6106;DHT22;3083;51.508;7.966;2023-04-26T00:44:34;2.40;99.90
6106;DHT22;3083;51.508;7.966;2023-04-26T00:47:04;2.40;99.90
6106;DHT22;3083;51.508;7.966;2023-04-26T00:49:32;2.30;99.90
6106;DHT22;3083;51.508;7.966;2023-04-26T00:51:59;2.30;99.90
6106;DHT22;3083;51.508;7.966;2023-04-26T00:54:26;2.30;99.90
6106;DHT22;3083;51.508;7.966;2023-04-26T00:56:53;2.30;99.90
6106;DHT22;3083;51.508;7.966;2023-04-26T00:59:22;2.20;99.90
6106;DHT22;3083;51.508;7.966;2023-04-26T01:01:49;2.20;99.90
6106;DHT22;3083;51.508;7.966;2023-04-26T01:04:16;2.20;99.90
6106;DHT22;3083;51.508;7.966;2023-04-26T01:06:43;2.10;99.90
6106;DHT22;3083;51.508;7.966;2023-04-26T01:09:10;2.00;99.90
6106;DHT22;3083;51.508;7.966;2023-04-26T01:11:39;2.00;99.90
6106;DHT22;3083;51.508;7.966;2023-04-26T01:14:08;2.00;99.90
6106;DHT22;3083;51.508;7.966;2023-04-26T01:16:37;2.00;99.90
6106;DHT22;3083;51.508;7.966;2023-04-26T01:19:08;2.00;99.90
6106;DHT22;3083;51.508;7.966;2023-04-26T01:21:37;2.00;99.90
6106;DHT22;3083;51.508;7.966;2023-04-26T01:24:08;1.90;99.90
6106;DHT22;3083;51.508;7.966;2023-04-26T01:26:36;1.90;99.90
6106;DHT22;3083;51.508;7.966;2023-04-26T01:29:14;1.90;99.90
6106;DHT22;3083;51.508;7.966;2023-04-26T01:31:41;1.80;99.90
6106;DHT22;3083;51.508;7.966;2023-04-26T01:34:08;1.80;99.90
6106;DHT22;3083;51.508;7.966;2023-04-26T01:36:35;1.70;99.90
6106;DHT22;3083;51.508;7.966;2023-04-26T01:39:02;1.70;99.90
6106;DHT22;3083;51.508;7.966;2023-04-26T01:41:31;1.60;99.90
6106;DHT22;3083;51.508;7.966;2023-04-26T01:43:58;1.60;99.90
6106;DHT22;3083;51.508;7.966;2023-04-26T01:46:25;1.50;99.90
6106;DHT22;3083;51.508;7.966;2023-04-26T01:48:52;1.50;99.90
6106;DHT22;3083;51.508;7.966;2023-04-26T01:51:19;1.50;99.90
6106;DHT22;3083;51.508;7.966;2023-04-26T01:53:47;1.50;99.90
6106;DHT22;3083;51.508;7.966;2023-04-26T01:56:14;1.40;99.90
6106;DHT22;3083;51.508;7.966;2023-04-26T01:58:42;1.40;99.90
6106;DHT22;3083;51.508;7.966;2023-04-26T02:01:09;1.40;99.90
6106;DHT22;3083;51.508;7.966;2023-04-26T02:03:36;1.40;99.90
6106;DHT22;3083;51.508;7.966;2023-04-26T02:06:03;1.40;99.90
6106;DHT22;3083;51.508;7.966;2023-04-26T02:08:30;1.40;99.90
6106;DHT22;3083;51.508;7.966;2023-04-26T02:10:57;1.40;99.90
6106;DHT22;3083;51.508;7.966;2023-04-26T02:13:24;1.40;99.90
6106;DHT22;3083;51.508;7.966;2023-04-26T02:15:53;1.40;99.90
6106;DHT22;3083;51.508;7.966;2023-04-26T02:18:20;1.50;99.90
6106;DHT22;3083;51.508;7.966;2023-04-26T02:20:47;1.50;99.90
6106;DHT22;3083;51.508;7.966;2023-04-26T02:23:14;1.50;99.90
6106;DHT22;3083;51.508;7.966;2023-04-26T02:25:45;1.40;99.90
6106;DHT22;3083;51.508;7.966;2023-04-26T02:28:12;1.40;99.90
6106;DHT22;3083;51.508;7.966;2023-04-26T02:30:39;1.40;99.90
6106;DHT22;3083;51.508;7.966;2023-04-26T02:33:08;1.40;99.90
6106;DHT22;3083;51.508;7.966;2023-04-26T02:35:35;1.40;99.90
6106;DHT22;3083;51.508;7.966;2023-04-26T02:38:02;1.30;99.90
6106;DHT22;3083;51.508;7.966;2023-04-26T02:40:29;1.20;99.90
6106;DHT22;3083;51.508;7.966;2023-04-26T02:42:56;1.10;99.90
6106;DHT22;3083;51.508;7.966;2023-04-26T02:45:23;1.10;99.90
6106;DHT22;3083;51.508;7.966;2023-04-26T02:47:50;1.10;99.90
6106;DHT22;3083;51.508;7.966;2023-04-26T02:50:18;1.10;99.90
6106;DHT22;3083;51.508;7.966;2023-04-26T02:52:45;1.10;99.90
6106;DHT22;3083;51.508;7.966;2023-04-26T02:55:12;1.20;99.90
6106;DHT22;3083;51.508;7.966;2023-04-26T02:57:39;1.20;99.90
6106;DHT22;3083;51.508;7.966;2023-04-26T03:00:07;1.20;99.90
6106;DHT22;3083;51.508;7.966;2023-04-26T03:02:34;1.30;99.90
6106;DHT22;3083;51.508;7.966;2023-04-26T03:05:01;1.30;99.90
6106;DHT22;3083;51.508;7.966;2023-04-26T03:07:30;1.40;99.90
6106;DHT22;3083;51.508;7.966;2023-04-26T03:09:57;1.40;99.90
6106;DHT22;3083;51.508;7.966;2023-04-26T03:12:25;1.50;99.90
6106;DHT22;3083;51.508;7.966;2023-04-26T03:14:51;1.50;99.90
6106;DHT22;3083;51.508;7.966;2023-04-26T03:17:18;1.50;99.90
6106;DHT22;3083;51.508;7.966;2023-04-26T03:19:45;1.50;99.90
6106;DHT22;3083;51.508;7.966;2023-04-26T03:22:12;1.50;99.90
6106;DHT22;3083;51.508;7.966;2023-04-26T03:24:42;1.50;99.90
6106;DHT22;3083;51.508;7.966;2023-04-26T03:27:09;1.40;99.90
6106;DHT22;3083;51.508;7.966;2023-04-26T03:29:36;1.40;99.90
6106;DHT22;3083;51.508;7.966;2023-04-26T03:32:03;1.40;99.90
6106;DHT22;3083;51.508;7.966;2023-04-26T03:34:30;1.30;99.90
6106;DHT22;3083;51.508;7.966;2023-04-26T03:36:57;1.30;99.90
6106;DHT22;3083;51.508;7.966;2023-04-26T03:39:24;1.30;99.90
6106;DHT22;3083;51.508;7.966;2023-04-26T03:41:52;1.20;99.90
6106;DHT22;3083;51.508;7.966;2023-04-26T03:44:19;1.20;99.90
6106;DHT22;3083;51.508;7.966;2023-04-26T03:46:46;1.20;99.90
6106;DHT22;3083;51.508;7.966;2023-04-26T03:49:13;1.20;99.90
6106;DHT22;3083;51.508;7.966;2023-04-26T03:51:40;1.20;99.90
6106;DHT22;3083;51.508;7.966;2023-04-26T03:54:07;1.20;99.90
6106;DHT22;3083;51.508;7.966;2023-04-26T03:56:34;1.20;99.90
6106;DHT22;3083;51.508;7.966;2023-04-26T03:59:02;1.10;99.90
6106;DHT22;3083;51.508;7.966;2023-04-26T04:01:29;1.10;99.90
6106;DHT22;3083;51.508;7.966;2023-04-26T04:03:57;1.10;99.90
6106;DHT22;3083;51.508;7.966;2023-04-26T04:06:24;1.10;99.90
6106;DHT22;3083;51.508;7.966;2023-04-26T04:08:51;1.10;99.90
6106;DHT22;3083;51.508;7.966;2023-04-26T04:11:18;1.10;99.90
6106;DHT22;3083;51.508;7.966;2023-04-26T04:13:45;1.00;99.90
6106;DHT22;3083;51.508;7.966;2023-04-26T04:16:13;1.00;99.90
6106;DHT22;3083;51.508;7.966;2023-04-26T04:18:40;1.00;99.90
6106;DHT22;3083;51.508;7.966;2023-04-26T04:21:07;1.00;99.90
6106;DHT22;3083;51.508;7.966;2023-04-26T04:23:34;1.00;99.90
6106;DHT22;3083;51.508;7.966;2023-04-26T04:26:01;1.00;99.90
6106;DHT22;3083;51.508;7.966;2023-04-26T04:28:28;1.00;99.90
6106;DHT22;3083;51.508;7.966;2023-04-26T04:30:55;1.00;99.90
6106;DHT22;3083;51.508;7.966;2023-04-26T04:33:24;1.00;99.90
6106;DHT22;3083;51.508;7.966;2023-04-26T04:35:53;1.00;99.90
6106;DHT22;3083;51.508;7.966;2023-04-26T04:38:20;1.00;99.90
6106;DHT22;3083;51.508;7.966;2023-04-26T04:40:47;1.00;99.90
6106;DHT22;3083;51.508;7.966;2023-04-26T04:43:15;1.00;99.90
6106;DHT22;3083;51.508;7.966;2023-04-26T04:45:42;1.00;99.90
6106;DHT22;3083;51.508;7.966;2023-04-26T04:48:09;1.00;99.90
6106;DHT22;3083;51.508;7.966;2023-04-26T04:50:38;1.10;99.90
6106;DHT22;3083;51.508;7.966;2023-04-26T04:53:04;1.10;99.90
6106;DHT22;3083;51.508;7.966;2023-04-26T04:55:33;1.20;99.90
6106;DHT22;3083;51.508;7.966;2023-04-26T04:58:01;1.20;99.90
6106;DHT22;3083;51.508;7.966;2023-04-26T05:00:29;1.30;99.90
6106;DHT22;3083;51.508;7.966;2023-04-26T05:02:56;1.40;99.90
6106;DHT22;3083;51.508;7.966;2023-04-26T05:05:23;1.50;99.90
6106;DHT22;3083;51.508;7.966;2023-04-26T05:07:51;1.70;99.90
6106;DHT22;3083;51.508;7.966;2023-04-26T05:10:18;1.80;99.90
6106;DHT22;3083;51.508;7.966;2023-04-26T05:12:45;1.90;99.90
6106;DHT22;3083;51.508;7.966;2023-04-26T05:15:13;2.10;99.90
6106;DHT22;3083;51.508;7.966;2023-04-26T05:17:41;2.30;99.90
6106;DHT22;3083;51.508;7.966;2023-04-26T05:20:08;2.50;99.90
6106;DHT22;3083;51.508;7.966;2023-04-26T05:22:35;2.70;99.90
6106;DHT22;3083;51.508;7.966;2023-04-26T05:25:07;3.00;99.90
6106;DHT22;3083;51.508;7.966;2023-04-26T05:27:35;3.30;99.90
6106;DHT22;3083;51.508;7.966;2023-04-26T05:30:02;3.60;99.90
6106;DHT22;3083;51.508;7.966;2023-04-26T05:32:29;3.80;99.90
6106;DHT22;3083;51.508;7.966;2023-04-26T05:34:56;4.00;99.90
6106;DHT22;3083;51.508;7.966;2023-04-26T05:37:23;4.20;99.90
6106;DHT22;3083;51.508;7.966;2023-04-26T05:39:50;4.50;99.90
6106;DHT22;3083;51.508;7.966;2023-04-26T05:42:19;4.60;99.90
6106;DHT22;3083;51.508;7.966;2023-04-26T05:44:45;4.80;99.90
6106;DHT22;3083;51.508;7.966;2023-04-26T05:47:12;5.10;99.90
6106;DHT22;3083;51.508;7.966;2023-04-26T05:49:39;5.30;99.90
6106;DHT22;3083;51.508;7.966;2023-04-26T05:52:06;5.40;99.90
6106;DHT22;3083;51.508;7.966;2023-04-26T05:54:33;5.70;99.90
6106;DHT22;3083;51.508;7.966;2023-04-26T05:57:00;5.90;99.90
6106;DHT22;3083;51.508;7.966;2023-04-26T05:59:29;6.10;99.90
6106;DHT22;3083;51.508;7.966;2023-04-26T06:01:57;6.10;99.90
6106;DHT22;3083;51.508;7.966;2023-04-26T06:04:24;6.10;99.90
6106;DHT22;3083;51.508;7.966;2023-04-26T06:06:51;6.00;99.90
6106;DHT22;3083;51.508;7.966;2023-04-26T06:09:18;5.90;99.90
6106;DHT22;3083;51.508;7.966;2023-04-26T06:11:45;5.80;99.90
6106;DHT22;3083;51.508;7.966;2023-04-26T06:14:12;5.80;99.90
6106;DHT22;3083;51.508;7.966;2023-04-26T06:16:41;5.80;99.90
6106;DHT22;3083;51.508;7.966;2023-04-26T06:19:07;5.90;99.90
6106;DHT22;3083;51.508;7.966;2023-04-26T06:21:34;6.00;99.90
6106;DHT22;3083;51.508;7.966;2023-04-26T06:24:01;6.10;99.90
6106;DHT22;3083;51.508;7.966;2023-04-26T06:26:29;6.20;99.90
6106;DHT22;3083;51.508;7.966;2023-04-26T06:28:56;6.30;99.90
6106;DHT22;3083;51.508;7.966;2023-04-26T06:31:23;6.60;99.90
6106;DHT22;3083;51.508;7.966;2023-04-26T06:33:52;7.00;99.90
6106;DHT22;3083;51.508;7.966;2023-04-26T06:36:19;7.30;99.90
6106;DHT22;3083;51.508;7.966;2023-04-26T06:38:46;7.60;99.90
6106;DHT22;3083;51.508;7.966;2023-04-26T06:41:13;8.00;99.90
6106;DHT22;3083;51.508;7.966;2023-04-26T06:43:40;8.40;99.90
6106;DHT22;3083;51.508;7.966;2023-04-26T06:46:07;8.80;99.90
6106;DHT22;3083;51.508;7.966;2023-04-26T06:48:33;9.10;99.90
6106;DHT22;3083;51.508;7.966;2023-04-26T06:51:05;9.30;99.90
6106;DHT22;3083;51.508;7.966;2023-04-26T06:53:33;9.50;99.90
6106;DHT22;3083;51.508;7.966;2023-04-26T06:55:59;9.40;99.90
6106;DHT22;3083;51.508;7.966;2023-04-26T06:58:26;9.20;99.90
6106;DHT22;3083;51.508;7.966;2023-04-26T07:00:53;9.00;99.90
6106;DHT22;3083;51.508;7.966;2023-04-26T07:03:20;9.00;99.90
6106;DHT22;3083;51.508;7.966;2023-04-26T07:05:47;9.10;99.90
6106;DHT22;3083;51.508;7.966;2023-04-26T07:08:15;9.30;99.90
6106;DHT22;3083;51.508;7.966;2023-04-26T07:10:42;9.50;99.90
6106;DHT22;3083;51.508;7.966;2023-04-26T07:13:09;9.70;99.90
6106;DHT22;3083;51.508;7.966;2023-04-26T07:15:36;9.90;99.90
6106;DHT22;3083;51.508;7.966;2023-04-26T07:18:03;10.00;99.90
6106;DHT22;3083;51.508;7.966;2023-04-26T07:20:30;10.10;99.90
6106;DHT22;3083;51.508;7.966;2023-04-26T07:22:57;10.20;99.90
6106;DHT22;3083;51.508;7.966;2023-04-26T07:25:25;10.50;99.90
6106;DHT22;3083;51.508;7.966;2023-04-26T07:27:52;10.60;99.90
6106;DHT22;3083;51.508;7.966;2023-04-26T07:30:20;10.70;99.90
6106;DHT22;3083;51.508;7.966;2023-04-26T07:32:47;10.90;99.90
6106;DHT22;3083;51.508;7.966;2023-04-26T07:35:14;10.90;99.90
6106;DHT22;3083;51.508;7.966;2023-04-26T07:37:42;11.00;99.90
6106;DHT22;3083;51.508;7.966;2023-04-26T07:40:11;11.10;99.90
6106;DHT22;3083;51.508;7.966;2023-04-26T07:42:39;11.30;99.90
6106;DHT22;3083;51.508;7.966;2023-04-26T07:45:07;11.40;99.90
6106;DHT22;3083;51.508;7.966;2023-04-26T07:47:34;11.50;99.90
6106;DHT22;3083;51.508;7.966;2023-04-26T07:50:01;11.70;99.90
6106;DHT22;3083;51.508;7.966;2023-04-26T07:52:28;11.90;99.90
6106;DHT22;3083;51.508;7.966;2023-04-26T07:54:55;12.10;99.90
6106;DHT22;3083;51.508;7.966;2023-04-26T07:57:22;12.20;99.90
6106;DHT22;3083;51.508;7.966;2023-04-26T07:59:51;11.90;99.90
6106;DHT22;3083;51.508;7.966;2023-04-26T08:02:18;11.30;99.90
6106;DHT22;3083;51.508;7.966;2023-04-26T08:04:47;10.90;99.90
6106;DHT22;3083;51.508;7.966;2023-04-26T08:07:14;10.60;99.90
6106;DHT22;3083;51.508;7.966;2023-04-26T08:09:41;10.30;99.90
6106;DHT22;3083;51.508;7.966;2023-04-26T08:12:08;10.20;99.90
6106;DHT22;3083;51.508;7.966;2023-04-26T08:14:35;10.10;99.90
6106;DHT22;3083;51.508;7.966;2023-04-26T08:17:06;10.00;99.90
6106;DHT22;3083;51.508;7.966;2023-04-26T08:19:33;9.80;99.90
6106;DHT22;3083;51.508;7.966;2023-04-26T08:22:00;9.60;99.90
6106;DHT22;3083;51.508;7.966;2023-04-26T08:24:27;9.50;99.90
6106;DHT22;3083;51.508;7.966;2023-04-26T08:26:54;9.60;99.90
6106;DHT22;3083;51.508;7.966;2023-04-26T08:29:23;9.80;99.90
6106;DHT22;3083;51.508;7.966;2023-04-26T08:31:51;9.90;99.90
6106;DHT22;3083;51.508;7.966;2023-04-26T08:34:19;10.10;99.90
6106;DHT22;3083;51.508;7.966;2023-04-26T08:36:46;10.30;99.90
6106;DHT22;3083;51.508;7.966;2023-04-26T08:39:13;10.50;99.90
6106;DHT22;3083;51.508;7.966;2023-04-26T08:41:43;10.50;99.90
6106;DHT22;3083;51.508;7.966;2023-04-26T08:44:11;10.60;99.90
6106;DHT22;3083;51.508;7.966;2023-04-26T08:46:46;10.60;99.90
6106;DHT22;3083;51.508;7.966;2023-04-26T08:49:33;10.60;99.90
6106;DHT22;3083;51.508;7.966;2023-04-26T08:52:08;10.50;99.90
6106;DHT22;3083;51.508;7.966;2023-04-26T08:54:36;10.50;99.90
6106;DHT22;3083;51.508;7.966;2023-04-26T08:57:03;10.40;99.90
6106;DHT22;3083;51.508;7.966;2023-04-26T08:59:32;10.30;99.90
6106;DHT22;3083;51.508;7.966;2023-04-26T09:02:00;10.50;99.90
6106;DHT22;3083;51.508;7.966;2023-04-26T09:04:28;10.70;99.90
6106;DHT22;3083;51.508;7.966;2023-04-26T09:06:59;10.80;99.90
6106;DHT22;3083;51.508;7.966;2023-04-26T09:09:28;10.70;99.90
6106;DHT22;3083;51.508;7.966;2023-04-26T09:11:58;10.50;99.90
6106;DHT22;3083;51.508;7.966;2023-04-26T09:14:26;10.40;99.90
6106;DHT22;3083;51.508;7.966;2023-04-26T09:16:53;10.40;99.90
6106;DHT22;3083;51.508;7.966;2023-04-26T09:19:34;10.40;99.90
6106;DHT22;3083;51.508;7.966;2023-04-26T09:22:03;10.40;99.90
6106;DHT22;3083;51.508;7.966;2023-04-26T09:24:45;10.40;99.90
6106;DHT22;3083;51.508;7.966;2023-04-26T09:27:12;10.30;99.90
6106;DHT22;3083;51.508;7.966;2023-04-26T09:29:40;10.20;99.90
6106;DHT22;3083;51.508;7.966;2023-04-26T09:32:07;10.10;99.90
6106;DHT22;3083;51.508;7.966;2023-04-26T09:34:43;10.10;99.90
6106;DHT22;3083;51.508;7.966;2023-04-26T09:37:13;10.10;99.90
6106;DHT22;3083;51.508;7.966;2023-04-26T09:39:40;10.10;99.90
6106;DHT22;3083;51.508;7.966;2023-04-26T09:42:08;10.10;99.90
6106;DHT22;3083;51.508;7.966;2023-04-26T09:44:36;10.10;99.90
6106;DHT22;3083;51.508;7.966;2023-04-26T09:47:05;10.10;99.90
6106;DHT22;3083;51.508;7.966;2023-04-26T09:49:43;10.30;99.90
6106;DHT22;3083;51.508;7.966;2023-04-26T09:52:12;10.50;99.90
6106;DHT22;3083;51.508;7.966;2023-04-26T09:54:42;10.80;99.90
6106;DHT22;3083;51.508;7.966;2023-04-26T09:57:09;11.10;99.90
6106;DHT22;3083;51.508;7.966;2023-04-26T09:59:44;11.20;99.90
6106;DHT22;3083;51.508;7.966;2023-04-26T10:02:17;11.10;99.90
6106;DHT22;3083;51.508;7.966;2023-04-26T10:04:45;11.10;99.90
6106;DHT22;3083;51.508;7.966;2023-04-26T10:07:15;11.00;99.90
6106;DHT22;3083;51.508;7.966;2023-04-26T10:09:43;10.90;99.90
6106;DHT22;3083;51.508;7.966;2023-04-26T10:12:12;10.80;99.90
6106;DHT22;3083;51.508;7.966;2023-04-26T10:14:39;10.70;99.90
6106;DHT22;3083;51.508;7.966;2023-04-26T10:17:07;10.60;99.90
6106;DHT22;3083;51.508;7.966;2023-04-26T10:19:35;10.60;99.90
6106;DHT22;3083;51.508;7.966;2023-04-26T10:22:07;10.60;99.90
6106;DHT22;3083;51.508;7.966;2023-04-26T10:24:36;10.60;99.90
6106;DHT22;3083;51.508;7.966;2023-04-26T10:27:03;10.60;99.90
6106;DHT22;3083;51.508;7.966;2023-04-26T10:30:05;10.70;99.90
6106;DHT22;3083;51.508;7.966;2023-04-26T10:36:05;10.80;99.90
6106;DHT22;3083;51.508;7.966;2023-04-26T10:38:33;10.90;99.90
6106;DHT22;3083;51.508;7.966;2023-04-26T10:41:34;11.00;99.90
6106;DHT22;3083;51.508;7.966;2023-04-26T10:47:28;10.90;99.90
6106;DHT22;3083;51.508;7.966;2023-04-26T10:50:07;10.80;99.90
6106;DHT22;3083;51.508;7.966;2023-04-26T10:52:34;10.80;99.90
6106;DHT22;3083;51.508;7.966;2023-04-26T10:55:02;10.80;99.90
6106;DHT22;3083;51.508;7.966;2023-04-26T10:57:49;10.70;99.90
6106;DHT22;3083;51.508;7.966;2023-04-26T11:00:27;10.80;99.90
6106;DHT22;3083;51.508;7.966;2023-04-26T11:03:03;10.90;99.90
6106;DHT22;3083;51.508;7.966;2023-04-26T11:08:23;11.20;99.90
6106;DHT22;3083;51.508;7.966;2023-04-26T11:10:56;11.40;99.90
6106;DHT22;3083;51.508;7.966;2023-04-26T11:13:24;11.40;99.90
6106;DHT22;3083;51.508;7.966;2023-04-26T11:15:52;11.40;99.90
6106;DHT22;3083;51.508;7.966;2023-04-26T11:18:20;11.30;99.90
6106;DHT22;3083;51.508;7.966;2023-04-26T11:20:47;11.20;99.90
6106;DHT22;3083;51.508;7.966;2023-04-26T11:23:14;11.00;99.90
6106;DHT22;3083;51.508;7.966;2023-04-26T11:25:43;10.80;99.90
6106;DHT22;3083;51.508;7.966;2023-04-26T11:28:11;10.60;99.90
6106;DHT22;3083;51.508;7.966;2023-04-26T11:30:39;10.50;99.90
6106;DHT22;3083;51.508;7.966;2023-04-26T11:33:15;10.40;99.90
6106;DHT22;3083;51.508;7.966;2023-04-26T11:35:43;10.20;99.90
6106;DHT22;3083;51.508;7.966;2023-04-26T11:38:11;10.00;99.90
6106;DHT22;3083;51.508;7.966;2023-04-26T11:40:39;9.90;99.90
6106;DHT22;3083;51.508;7.966;2023-04-26T11:43:07;9.80;99.90
6106;DHT22;3083;51.508;7.966;2023-04-26T11:45:36;9.70;99.90
6106;DHT22;3083;51.508;7.966;2023-04-26T11:48:06;9.70;99.90
6106;DHT22;3083;51.508;7.966;2023-04-26T11:50:36;9.70;99.90
6106;DHT22;3083;51.508;7.966;2023-04-26T11:53:05;9.70;99.90
6106;DHT22;3083;51.508;7.966;2023-04-26T11:55:34;9.70;99.90
6106;DHT22;3083;51.508;7.966;2023-04-26T11:58:08;9.70;99.90
6106;DHT22;3083;51.508;7.966;2023-04-26T12:00:36;9.70;99.90
6106;DHT22;3083;51.508;7.966;2023-04-26T12:03:06;9.70;99.90
6106;DHT22;3083;51.508;7.966;2023-04-26T12:05:35;9.70;99.90
6106;DHT22;3083;51.508;7.966;2023-04-26T12:08:02;9.60;99.90
6106;DHT22;3083;51.508;7.966;2023-04-26T12:10:32;9.60;99.90
6106;DHT22;3083;51.508;7.966;2023-04-26T12:12:59;9.60;99.90
6106;DHT22;3083;51.508;7.966;2023-04-26T12:15:29;9.60;99.90
6106;DHT22;3083;51.508;7.966;2023-04-26T12:17:58;9.50;99.90
6106;DHT22;3083;51.508;7.966;2023-04-26T12:20:31;9.50;99.90
6106;DHT22;3083;51.508;7.966;2023-04-26T12:23:00;9.60;99.90
6106;DHT22;3083;51.508;7.966;2023-04-26T12:25:27;9.70;99.90
6106;DHT22;3083;51.508;7.966;2023-04-26T12:27:55;9.90;99.90
6106;DHT22;3083;51.508;7.966;2023-04-26T12:30:22;10.20;99.90
6106;DHT22;3083;51.508;7.966;2023-04-26T12:32:49;10.50;99.90
6106;DHT22;3083;51.508;7.966;2023-04-26T12:35:16;10.80;99.90
6106;DHT22;3083;51.508;7.966;2023-04-26T12:37:44;11.10;99.90
6106;DHT22;3083;51.508;7.966;2023-04-26T12:40:12;11.40;99.90
6106;DHT22;3083;51.508;7.966;2023-04-26T12:42:40;11.70;99.90
6106;DHT22;3083;51.508;7.966;2023-04-26T12:45:08;12.00;99.90
6106;DHT22;3083;51.508;7.966;2023-04-26T12:47:35;12.10;99.90
6106;DHT22;3083;51.508;7.966;2023-04-26T12:50:03;12.10;99.90
6106;DHT22;3083;51.508;7.966;2023-04-26T12:52:30;12.00;99.90
6106;DHT22;3083;51.508;7.966;2023-04-26T12:54:59;11.90;99.90
6106;DHT22;3083;51.508;7.966;2023-04-26T12:57:26;11.80;99.90
6106;DHT22;3083;51.508;7.966;2023-04-26T12:59:53;11.80;99.90
6106;DHT22;3083;51.508;7.966;2023-04-26T13:02:21;11.70;99.90
6106;DHT22;3083;51.508;7.966;2023-04-26T13:04:49;11.70;99.90
6106;DHT22;3083;51.508;7.966;2023-04-26T13:07:16;11.80;99.90
6106;DHT22;3083;51.508;7.966;2023-04-26T13:09:43;11.90;99.90
6106;DHT22;3083;51.508;7.966;2023-04-26T13:12:12;12.00;99.90
6106;DHT22;3083;51.508;7.966;2023-04-26T13:14:38;12.00;99.90
6106;DHT22;3083;51.508;7.966;2023-04-26T13:17:05;12.00;99.90
6106;DHT22;3083;51.508;7.966;2023-04-26T13:19:33;12.10;99.90
6106;DHT22;3083;51.508;7.966;2023-04-26T13:22:02;12.10;99.90
6106;DHT22;3083;51.508;7.966;2023-04-26T13:24:29;12.20;99.90
6106;DHT22;3083;51.508;7.966;2023-04-26T13:26:57;12.30;99.90
6106;DHT22;3083;51.508;7.966;2023-04-26T13:29:25;12.50;99.90
6106;DHT22;3083;51.508;7.966;2023-04-26T13:31:52;12.80;99.90
6106;DHT22;3083;51.508;7.966;2023-04-26T13:34:19;12.90;99.90
6106;DHT22;3083;51.508;7.966;2023-04-26T13:36:46;13.00;99.90
6106;DHT22;3083;51.508;7.966;2023-04-26T13:39:15;12.80;99.90
6106;DHT22;3083;51.508;7.966;2023-04-26T13:41:42;12.80;99.90
6106;DHT22;3083;51.508;7.966;2023-04-26T13:44:09;12.70;99.90
6106;DHT22;3083;51.508;7.966;2023-04-26T13:46:40;12.60;99.90
6106;DHT22;3083;51.508;7.966;2023-04-26T13:49:08;12.50;99.90
6106;DHT22;3083;51.508;7.966;2023-04-26T13:51:35;12.40;99.90
6106;DHT22;3083;51.508;7.966;2023-04-26T13:54:03;12.40;99.90
6106;DHT22;3083;51.508;7.966;2023-04-26T13:56:31;12.20;99.90
6106;DHT22;3083;51.508;7.966;2023-04-26T13:58:58;12.10;99.90
6106;DHT22;3083;51.508;7.966;2023-04-26T14:01:28;12.00;99.90
6106;DHT22;3083;51.508;7.966;2023-04-26T14:03:59;12.00;99.90
6106;DHT22;3083;51.508;7.966;2023-04-26T14:06:26;11.90;99.90
6106;DHT22;3083;51.508;7.966;2023-04-26T14:08:53;11.80;99.90
6106;DHT22;3083;51.508;7.966;2023-04-26T14:11:20;11.90;99.90
6106;DHT22;3083;51.508;7.966;2023-04-26T14:13:50;11.90;99.90
6106;DHT22;3083;51.508;7.966;2023-04-26T14:16:20;12.00;99.90
6106;DHT22;3083;51.508;7.966;2023-04-26T14:18:47;12.10;99.90
6106;DHT22;3083;51.508;7.966;2023-04-26T14:21:16;12.00;99.90
6106;DHT22;3083;51.508;7.966;2023-04-26T14:23:44;12.00;99.90
6106;DHT22;3083;51.508;7.966;2023-04-26T14:26:11;12.10;99.90
6106;DHT22;3083;51.508;7.966;2023-04-26T14:28:38;12.10;99.90
6106;DHT22;3083;51.508;7.966;2023-04-26T14:31:05;12.20;99.90
6106;DHT22;3083;51.508;7.966;2023-04-26T14:33:32;12.10;99.90
6106;DHT22;3083;51.508;7.966;2023-04-26T14:35:59;12.20;99.90
6106;DHT22;3083;51.508;7.966;2023-04-26T14:38:28;12.20;99.90
6106;DHT22;3083;51.508;7.966;2023-04-26T14:40:54;12.30;99.90
6106;DHT22;3083;51.508;7.966;2023-04-26T14:43:21;12.40;99.90
6106;DHT22;3083;51.508;7.966;2023-04-26T14:45:48;12.40;99.90
6106;DHT22;3083;51.508;7.966;2023-04-26T14:48:15;12.50;99.90
6106;DHT22;3083;51.508;7.966;2023-04-26T14:50:42;12.60;99.90
6106;DHT22;3083;51.508;7.966;2023-04-26T14:53:09;12.70;99.90
6106;DHT22;3083;51.508;7.966;2023-04-26T14:55:37;12.80;99.90
6106;DHT22;3083;51.508;7.966;2023-04-26T14:58:04;12.80;99.90
6106;DHT22;3083;51.508;7.966;2023-04-26T15:00:31;12.70;99.90
6106;DHT22;3083;51.508;7.966;2023-04-26T15:02:58;12.60;99.90
6106;DHT22;3083;51.508;7.966;2023-04-26T15:05:25;12.50;99.90
6106;DHT22;3083;51.508;7.966;2023-04-26T15:07:52;12.40;99.90
6106;DHT22;3083;51.508;7.966;2023-04-26T15:10:19;12.30;99.90
6106;DHT22;3083;51.508;7.966;2023-04-26T15:12:47;12.30;99.90
6106;DHT22;3083;51.508;7.966;2023-04-26T15:15:15;12.20;99.90
6106;DHT22;3083;51.508;7.966;2023-04-26T15:17:41;11.90;99.90
6106;DHT22;3083;51.508;7.966;2023-04-26T15:20:09;11.80;99.90
6106;DHT22;3083;51.508;7.966;2023-04-26T15:22:36;11.70;99.90
6106;DHT22;3083;51.508;7.966;2023-04-26T15:25:03;11.60;99.90
6106;DHT22;3083;51.508;7.966;2023-04-26T15:27:33;11.50;99.90
6106;DHT22;3083;51.508;7.966;2023-04-26T15:30:01;11.40;99.90
6106;DHT22;3083;51.508;7.966;2023-04-26T15:32:29;11.40;99.90
6106;DHT22;3083;51.508;7.966;2023-04-26T15:34:56;11.20;99.90
6106;DHT22;3083;51.508;7.966;2023-04-26T15:37:23;11.10;99.90
6106;DHT22;3083;51.508;7.966;2023-04-26T15:39:50;11.00;99.90
6106;DHT22;3083;51.508;7.966;2023-04-26T15:42:17;10.90;99.90
6106;DHT22;3083;51.508;7.966;2023-04-26T15:44:44;10.90;99.90
6106;DHT22;3083;51.508;7.966;2023-04-26T15:47:12;10.80;99.90
6106;DHT22;3083;51.508;7.966;2023-04-26T15:49:39;10.80;99.90
6106;DHT22;3083;51.508;7.966;2023-04-26T15:52:06;10.90;99.90
6106;DHT22;3083;51.508;7.966;2023-04-26T15:54:33;11.00;99.90
6106;DHT22;3083;51.508;7.966;2023-04-26T15:57:00;11.20;99.90
6106;DHT22;3083;51.508;7.966;2023-04-26T15:59:28;11.40;99.90
6106;DHT22;3083;51.508;7.966;2023-04-26T16:01:55;11.60;99.90
6106;DHT22;3083;51.508;7.966;2023-04-26T16:04:23;11.60;99.90
6106;DHT22;3083;51.508;7.966;2023-04-26T16:06:50;11.70;99.90
6106;DHT22;3083;51.508;7.966;2023-04-26T16:09:17;11.80;99.90
6106;DHT22;3083;51.508;7.966;2023-04-26T16:11:44;11.90;99.90
6106;DHT22;3083;51.508;7.966;2023-04-26T16:14:12;11.80;99.90
6106;DHT22;3083;51.508;7.966;2023-04-26T16:16:39;11.60;99.90
6106;DHT22;3083;51.508;7.966;2023-04-26T16:19:06;11.40;99.90
6106;DHT22;3083;51.508;7.966;2023-04-26T16:21:35;11.20;99.90
6106;DHT22;3083;51.508;7.966;2023-04-26T16:24:04;11.00;99.90